Time;durP1;ratioP1;P1;durP2;ratioP2;P2;SDS_P1;SDS_P2;PMS_P1;PMS_P2;Temp;Humidity;BMP_temperature;BMP_pressure;BME280_temperature;BME280_humidity;BME280_pressure;Samples;Min_cycle;Max_cycle;Signal;HPM_P1;HPM_P2
2022/09/01 04:12:14;;;;;;;1.73;1.40;;;;;;;22.17;74.05;101036.44;5098546;27;1395393;-82
2022/09/01 04:14:41;;;;;;;1.38;1.27;;;;;;;22.80;70.71;101031.44;5116829;27;20446;-85
2022/09/01 04:19:50;;;;;;;3.42;3.13;;;;;;;22.08;73.73;101030.19;5106913;28;20043;-85
2022/09/01 04:22:16;;;;;;;2.08;1.88;;;;;;;22.01;73.90;101026.41;5093651;28;20028;-88
2022/09/01 04:24:45;;;;;;;3.03;2.72;;;;;;;22.85;70.39;101040.63;5090301;28;20049;-84
2022/09/01 04:27:11;;;;;;;2.55;2.35;;;;;;;22.97;69.98;101035.16;5090261;28;20027;-84
2022/09/01 04:29:36;;;;;;;3.40;3.10;;;;;;;23.35;68.31;101037.59;5072959;28;20024;-84
2022/09/01 04:32:08;;;;;;;3.63;2.58;;;;;;;23.00;69.84;101033.03;5089186;28;20024;-90
2022/09/01 04:34:38;;;;;;;3.15;2.88;;;;;;;23.50;67.38;101030.03;5090737;28;20548;-86
2022/09/01 04:37:22;;;;;;;2.42;2.22;;;;;;;23.79;66.26;101034.28;5090226;28;20038;-86
2022/09/01 04:39:51;;;;;;;2.10;1.75;;;;;;;23.36;67.59;101017.31;5089145;28;20031;-85
2022/09/01 04:42:19;;;;;;;1.30;1.17;;;;;;;23.50;67.46;101035.31;5106572;28;20023;-84
2022/09/01 04:44:45;;;;;;;2.45;2.25;;;;;;;23.42;67.86;101048.41;5089680;28;20806;-85
2022/09/01 04:47:13;;;;;;;2.75;2.55;;;;;;;23.46;67.51;101039.19;5072852;28;20035;-86
2022/09/01 04:49:39;;;;;;;1.92;1.63;;;;;;;23.25;68.61;101051.84;5081541;28;20515;-84
2022/09/01 04:52:05;;;;;;;2.35;2.15;;;;;;;23.68;66.99;101057.28;5058231;28;20049;-90
2022/09/01 04:54:31;;;;;;;2.47;2.28;;;;;;;23.96;65.67;101054.59;5049407;28;20032;-90
2022/09/01 04:56:57;;;;;;;2.17;1.95;;;;;;;24.02;65.46;101051.34;5060177;28;20032;-87
2022/09/01 04:59:23;;;;;;;1.75;1.63;;;;;;;23.84;65.92;101048.72;5057221;28;20029;-84
2022/09/01 05:01:49;;;;;;;2.08;1.70;;;;;;;23.78;66.55;101032.63;5043311;28;20051;-86
2022/09/01 05:04:17;;;;;;;2.33;1.77;;;;;;;23.95;65.95;101050.28;5064691;28;20032;-88
2022/09/01 05:06:44;;;;;;;3.20;2.92;;;;;;;23.75;66.66;101055.72;5065549;28;20055;-91
2022/09/01 05:09:11;;;;;;;2.25;2.05;;;;;;;23.84;66.70;101058.44;5061285;28;20091;-91
2022/09/01 05:11:48;;;;;;;1.65;1.50;;;;;;;23.87;66.28;101048.41;5037602;28;20522;-93
2022/09/01 05:14:17;;;;;;;1.38;1.27;;;;;;;23.78;66.31;101035.25;5050654;28;20025;-92
2022/09/01 05:16:43;;;;;;;1.45;1.35;;;;;;;23.96;66.48;101051.94;5065662;28;20029;-87
2022/09/01 05:19:13;;;;;;;1.75;1.63;;;;;;;24.41;65.32;101061.63;5048760;28;20017;-87
2022/09/01 05:21:44;;;;;;;1.88;1.73;;;;;;;24.36;65.39;101043.56;5058505;28;20029;-92
2022/09/01 05:24:20;;;;;;;3.45;2.42;;;;;;;24.63;64.95;101050.50;5028322;28;20047;-91
2022/09/01 05:26:46;;;;;;;1.90;1.80;;;;;;;24.46;64.71;101054.03;5021574;28;20049;-83
2022/09/01 05:29:14;;;;;;;1.73;1.52;;;;;;;24.42;65.04;101050.88;5033040;28;20029;-82
2022/09/01 05:31:40;;;;;;;2.60;2.38;;;;;;;24.52;64.79;101053.41;5050437;28;20033;-82
2022/09/01 05:34:08;;;;;;;2.33;2.05;;;;;;;24.41;64.89;101051.03;5052009;28;20098;-90
2022/09/01 05:36:35;;;;;;;2.42;2.15;;;;;;;24.46;64.21;101049.56;5022102;28;20021;-90
2022/09/01 05:39:00;;;;;;;2.28;2.00;;;;;;;24.51;64.06;101055.25;5049953;28;20544;-82
2022/09/01 05:41:27;;;;;;;1.95;1.80;;;;;;;24.59;64.02;101049.19;5050464;28;20100;-86
2022/09/01 05:43:53;;;;;;;1.65;1.55;;;;;;;24.44;64.91;101050.72;5049367;28;20029;-85
2022/09/01 05:46:21;;;;;;;1.90;1.73;;;;;;;24.35;65.46;101036.59;5050293;28;20029;-81
2022/09/01 05:48:48;;;;;;;2.45;2.08;;;;;;;24.42;65.70;101047.41;5033595;28;20041;-86
2022/09/01 05:51:18;;;;;;;2.03;1.38;;;;;;;24.24;66.46;101042.94;5021029;28;20080;-83
2022/09/01 05:53:45;;;;;;;1.65;1.55;;;;;;;24.31;66.55;101054.59;5033861;28;20090;-82
2022/09/01 05:56:13;;;;;;;1.85;1.67;;;;;;;24.05;66.57;101035.19;5034328;28;20017;-83
2022/09/01 05:58:40;;;;;;;1.48;1.38;;;;;;;24.18;66.68;101053.28;5026850;28;20414;-87
2022/09/01 06:01:05;;;;;;;1.75;1.52;;;;;;;24.40;65.94;101050.22;5039645;28;20036;-83
2022/09/01 06:03:32;;;;;;;1.35;1.25;;;;;;;24.41;65.60;101041.28;5050729;28;20021;-86
2022/09/01 06:06:02;;;;;;;1.40;1.30;;;;;;;24.11;66.71;101039.88;5055504;28;20120;-94
2022/09/01 06:08:27;;;;;;;1.27;1.17;;;;;;;23.90;67.34;101036.72;5017768;28;20033;-90
2022/09/01 06:10:53;;;;;;;1.73;1.60;;;;;;;23.86;67.38;101027.41;5052409;28;20056;-94
2022/09/01 06:13:20;;;;;;;3.47;2.92;;;;;;;23.68;69.38;101038.81;5015703;28;20084;-87
2022/09/01 06:18:22;;;;;;;2.60;2.40;;;;;;;24.04;67.91;101039.63;5372528;22;21289;-86
2022/09/01 06:20:48;;;;;;;3.25;1.80;;;;;;;24.29;66.79;101047.78;5018113;23;20111;-85
2022/09/01 06:23:16;;;;;;;1.80;1.65;;;;;;;24.16;67.21;101040.22;4978188;28;20033;-88
2022/09/01 06:25:44;;;;;;;1.92;1.73;;;;;;;24.11;67.33;101041.69;4993967;28;20033;-82
2022/09/01 06:28:11;;;;;;;1.77;1.67;;;;;;;23.88;68.48;101038.66;5026549;28;20034;-82
2022/09/01 06:30:38;;;;;;;1.30;1.13;;;;;;;23.95;67.87;101040.56;4995375;28;20034;-94
2022/09/01 06:33:08;;;;;;;2.78;2.22;;;;;;;23.97;68.21;101043.03;4996546;28;20460;-90
2022/09/01 06:35:34;;;;;;;1.25;1.15;;;;;;;23.95;68.55;101042.38;4997973;28;20075;-88
2022/09/01 06:38:00;;;;;;;2.88;2.08;;;;;;;24.05;68.00;101048.41;4989503;28;20026;-89
2022/09/01 06:40:26;;;;;;;2.05;1.85;;;;;;;24.01;68.14;101057.63;5009340;28;20056;-87
2022/09/01 06:42:52;;;;;;;1.50;1.40;;;;;;;24.03;68.23;101060.94;5010434;28;20486;-85
2022/09/01 06:45:19;;;;;;;2.40;2.20;;;;;;;24.04;67.69;101055.50;4996055;28;20053;-82
2022/09/01 06:47:46;;;;;;;2.42;1.92;;;;;;;24.03;67.54;101058.28;5025679;28;20101;-80
2022/09/01 06:50:13;;;;;;;3.05;2.17;;;;;;;24.22;67.27;101071.34;4952186;28;20056;-90
2022/09/01 06:52:42;;;;;;;2.35;2.08;;;;;;;24.25;66.89;101062.28;4960554;28;20518;-87
2022/09/01 06:55:12;;;;;;;1.58;1.40;;;;;;;24.17;67.40;101064.84;4976000;28;20036;-89
2022/09/01 06:57:38;;;;;;;1.48;1.38;;;;;;;24.20;67.25;101062.75;4974581;28;20482;-88
2022/09/01 07:00:14;;;;;;;2.03;1.60;;;;;;;24.43;66.82;101076.34;4975705;28;20030;-90
2022/09/01 07:02:40;;;;;;;2.50;1.95;;;;;;;24.32;66.60;101058.06;4967046;28;20041;-86
2022/09/01 07:05:06;;;;;;;2.13;1.92;;;;;;;24.07;67.61;101064.94;4972200;28;20042;-81
2022/09/01 07:07:33;;;;;;;1.40;1.30;;;;;;;24.07;67.90;101064.94;4985272;28;20033;-88
2022/09/01 07:09:58;;;;;;;2.08;1.88;;;;;;;23.95;68.47;101060.88;4960821;28;20443;-86
2022/09/01 07:12:24;;;;;;;2.58;1.60;;;;;;;23.99;68.61;101072.78;4974456;28;20037;-87
2022/09/01 07:14:49;;;;;;;2.63;2.10;;;;;;;24.13;67.91;101080.19;4974694;28;20040;-93
2022/09/01 07:17:15;;;;;;;2.13;1.92;;;;;;;24.19;67.45;101073.47;4972741;28;20033;-84
2022/09/01 07:19:40;;;;;;;1.13;1.02;;;;;;;24.05;68.31;101080.13;4970035;28;20088;-84
2022/09/01 07:22:06;;;;;;;2.03;1.83;;;;;;;24.11;68.44;101092.72;4974176;28;20046;-83
2022/09/01 07:24:32;;;;;;;1.77;1.65;;;;;;;24.00;68.13;101063.91;4973789;28;20030;-81
2022/09/01 07:26:57;;;;;;;2.30;2.10;;;;;;;24.29;68.15;101090.09;4973805;28;20030;-83
2022/09/01 07:29:24;;;;;;;1.58;1.30;;;;;;;24.46;67.61;101091.06;4970575;28;20038;-87
2022/09/01 07:31:53;;;;;;;2.70;1.88;;;;;;;24.62;66.62;101091.19;4983678;28;20109;-82
2022/09/01 07:34:20;;;;;;;2.58;2.10;;;;;;;24.53;66.82;101092.09;4973321;28;20041;-82
2022/09/01 07:36:45;;;;;;;2.08;1.88;;;;;;;24.72;66.50;101096.38;4985908;28;20117;-82
2022/09/01 07:39:12;;;;;;;2.78;2.47;;;;;;;24.41;67.10;101094.19;4985921;28;20477;-82
2022/09/01 07:41:40;;;;;;;2.40;2.20;;;;;;;24.57;66.74;101096.91;4985629;28;20029;-84
2022/09/01 07:44:09;;;;;;;2.20;2.00;;;;;;;24.58;66.60;101090.69;4969586;28;20046;-82
2022/09/01 07:46:34;;;;;;;1.38;1.27;;;;;;;24.61;66.11;101078.94;4952679;28;20169;-85
2022/09/01 07:49:00;;;;;;;2.70;1.83;;;;;;;24.67;66.25;101083.59;4963864;28;20057;-80
2022/09/01 07:51:26;;;;;;;2.00;1.80;;;;;;;24.67;65.70;101078.31;4951598;28;20491;-80
2022/09/01 07:53:52;;;;;;;2.28;1.92;;;;;;;24.75;65.25;101086.31;4967118;28;20046;-86
2022/09/01 07:56:19;;;;;;;2.72;2.47;;;;;;;24.88;65.86;101092.03;4954845;28;20031;-86
2022/09/01 07:58:45;;;;;;;1.85;1.75;;;;;;;24.69;66.04;101091.41;4953009;28;20034;-88
2022/09/01 08:01:12;;;;;;;2.47;2.15;;;;;;;24.55;66.24;101090.13;4944820;28;20058;-82
2022/09/01 08:03:38;;;;;;;2.70;2.47;;;;;;;24.52;66.75;101079.88;4958514;28;20030;-92
2022/09/01 08:06:05;;;;;;;2.35;2.10;;;;;;;24.31;67.26;101062.53;4970367;28;20070;-82
2022/09/01 08:08:32;;;;;;;2.78;1.98;;;;;;;24.33;67.73;101075.59;4955710;28;20062;-83
2022/09/01 08:10:57;;;;;;;1.95;1.77;;;;;;;24.43;67.42;101076.34;4958551;28;20031;-91
2022/09/01 08:13:23;;;;;;;2.03;1.85;;;;;;;24.39;67.60;101068.88;4962208;28;20033;-82
2022/09/01 08:15:48;;;;;;;2.45;1.95;;;;;;;24.16;68.56;101061.38;4966243;28;20517;-80
2022/09/01 08:18:14;;;;;;;1.67;1.58;;;;;;;24.11;68.02;101071.59;4954006;28;20149;-83
2022/09/01 08:20:44;;;;;;;2.17;1.95;;;;;;;23.96;69.24;101071.28;4973248;28;20503;-83
2022/09/01 08:23:10;;;;;;;3.10;2.17;;;;;;;23.92;69.47;101066.47;4954820;28;20065;-90
2022/09/01 08:25:35;;;;;;;2.33;2.13;;;;;;;23.92;69.91;101066.47;4965065;28;20062;-81
2022/09/01 08:28:01;;;;;;;2.80;2.45;;;;;;;23.96;69.59;101070.44;4967933;28;20464;-82
2022/09/01 08:30:27;;;;;;;3.95;2.72;;;;;;;23.90;69.71;101084.28;4955595;28;20030;-85
2022/09/01 08:32:52;;;;;;;1.83;1.70;;;;;;;23.80;69.19;101072.94;4959184;28;20034;-88
2022/09/01 08:35:18;;;;;;;2.33;2.13;;;;;;;23.91;69.15;101072.72;4962559;28;20066;-85
2022/09/01 08:37:43;;;;;;;2.80;2.60;;;;;;;24.17;67.81;101078.88;4969274;28;20828;-81
2022/09/01 08:40:13;;;;;;;2.75;1.77;;;;;;;24.46;66.99;101085.75;4974460;28;20030;-86
2022/09/01 08:43:06;;;;;;;3.40;2.90;;;;;;;24.53;66.54;101086.81;4957059;28;20074;-86
2022/09/01 08:45:42;;;;;;;2.47;2.28;;;;;;;24.62;65.78;101088.53;4946770;28;20042;-81
2022/09/01 08:48:32;;;;;;;1.67;1.58;;;;;;;24.72;66.03;101083.16;4975472;28;20034;-82
2022/09/01 08:51:37;;;;;;;2.50;2.30;;;;;;;24.86;65.58;101083.38;4954857;28;20131;-82
2022/09/01 08:54:11;;;;;;;2.58;2.08;;;;;;;24.61;66.56;101084.25;4961736;28;20542;-81
2022/09/01 08:56:37;;;;;;;4.03;2.55;;;;;;;24.79;65.63;101078.91;4969930;28;20121;-81
2022/09/01 08:59:04;;;;;;;3.83;3.53;;;;;;;24.83;65.85;101070.47;4961634;28;20198;-87
2022/09/01 09:01:54;;;;;;;2.28;2.08;;;;;;;25.17;64.51;101082.91;4961765;28;20061;-86
2022/09/01 09:04:32;;;;;;;3.40;3.10;;;;;;;25.30;63.99;101072.72;4973520;28;20111;-81
2022/09/01 09:07:10;;;;;;;2.30;2.10;;;;;;;25.63;62.80;101078.94;4979239;28;20042;-89
2022/09/01 09:09:40;;;;;;;2.53;2.33;;;;;;;25.58;62.53;101077.78;4973961;28;20038;-81
2022/09/01 09:12:18;;;;;;;2.80;2.60;;;;;;;25.39;63.34;101074.41;4964147;28;20089;-82
2022/09/01 09:15:14;;;;;;;3.47;3.15;;;;;;;25.12;64.78;101082.56;4976037;28;20038;-83
2022/09/01 09:17:47;;;;;;;2.80;2.53;;;;;;;24.85;64.17;101070.31;4972433;28;20026;-89
2022/09/01 09:20:12;;;;;;;2.53;2.33;;;;;;;24.96;65.11;101085.09;4957686;28;20046;-85
2022/09/01 09:22:39;;;;;;;3.28;2.78;;;;;;;24.94;64.61;101063.25;4960236;28;20389;-82
2022/09/01 09:25:13;;;;;;;1.77;1.65;;;;;;;25.02;64.19;101087.97;4963979;28;20105;-82
2022/09/01 09:27:48;;;;;;;2.35;2.15;;;;;;;25.04;64.32;101069.28;4988456;28;20108;-83
2022/09/01 09:30:22;;;;;;;3.70;2.20;;;;;;;25.18;63.76;101081.94;4988355;28;20023;-82
2022/09/01 09:33:03;;;;;;;2.00;1.63;;;;;;;25.07;63.64;101068.97;4977062;28;20039;-82
2022/09/01 09:35:35;;;;;;;3.25;2.42;;;;;;;24.97;63.65;101062.94;4977390;28;20030;-84
2022/09/01 09:38:31;;;;;;;3.10;2.80;;;;;;;25.04;63.72;101058.69;4972171;28;20022;-84
2022/09/01 09:41:04;;;;;;;3.50;3.13;;;;;;;25.14;61.78;101048.81;4970677;28;20113;-82
2022/09/01 09:43:34;;;;;;;5.13;3.17;;;;;;;25.01;63.10;101035.19;4982529;28;20034;-82
2022/09/01 09:46:31;;;;;;;2.35;2.10;;;;;;;25.22;62.46;101030.31;4969349;28;20526;-87
2022/09/01 09:49:11;;;;;;;3.40;2.92;;;;;;;25.29;62.76;101026.06;4962033;28;20030;-87
2022/09/01 09:51:42;;;;;;;2.55;2.20;;;;;;;25.49;61.89;101010.72;4950126;28;20104;-85
2022/09/01 09:54:20;;;;;;;4.40;3.22;;;;;;;25.73;60.90;101023.19;4958140;28;20114;-86
2022/09/01 09:56:47;;;;;;;3.13;2.42;;;;;;;25.74;61.31;101024.84;4976430;28;20550;-86
2022/09/01 09:59:43;;;;;;;2.42;2.22;;;;;;;25.70;61.11;101034.13;4955767;28;20077;-83
2022/09/01 10:02:24;;;;;;;2.20;2.03;;;;;;;25.73;60.42;101025.84;4966654;28;20523;-82
2022/09/01 10:04:49;;;;;;;3.67;3.08;;;;;;;25.94;60.15;101031.47;4972857;28;20054;-86
2022/09/01 10:07:39;;;;;;;1.52;1.42;;;;;;;25.94;59.79;101028.81;4957894;28;20071;-85
2022/09/01 10:10:07;;;;;;;3.30;3.00;;;;;;;25.77;60.53;101021.06;4969698;28;20077;-86
2022/09/01 10:12:33;;;;;;;2.50;2.28;;;;;;;25.86;59.94;101033.28;4958049;28;20031;-80
2022/09/01 10:15:03;;;;;;;2.05;1.52;;;;;;;25.87;59.55;101024.38;4962079;28;20031;-80
2022/09/01 10:17:33;;;;;;;1.95;1.85;;;;;;;25.96;59.68;101000.34;4981846;28;20101;-80
2022/09/01 10:20:11;;;;;;;2.55;2.08;;;;;;;26.00;59.58;100999.00;4969392;28;20051;-84
2022/09/01 10:22:36;;;;;;;1.50;1.40;;;;;;;25.91;59.24;101000.00;4961772;28;20031;-81
2022/09/01 10:25:03;;;;;;;1.85;1.27;;;;;;;25.76;58.12;100982.25;4962023;28;20089;-83
2022/09/01 10:27:36;;;;;;;1.85;1.67;;;;;;;25.85;59.94;101005.97;4981959;28;20118;-83
2022/09/01 10:30:30;;;;;;;2.53;1.85;;;;;;;25.97;59.35;101004.66;4969895;28;20562;-81
2022/09/01 10:33:00;;;;;;;1.50;1.20;;;;;;;25.86;58.71;101007.66;4960921;28;20134;-83
2022/09/01 10:35:26;;;;;;;2.15;1.75;;;;;;;25.81;59.61;101002.00;4965244;28;20027;-82
2022/09/01 10:37:52;;;;;;;2.42;1.80;;;;;;;25.93;59.12;101008.63;4968315;28;20474;-79
2022/09/01 10:40:27;;;;;;;1.52;1.40;;;;;;;26.10;57.43;101004.16;4955338;28;20440;-84
2022/09/01 10:43:20;;;;;;;2.00;1.40;;;;;;;26.11;58.43;100991.72;4971764;28;20151;-83
2022/09/01 10:45:46;;;;;;;1.38;1.27;;;;;;;26.27;57.85;100989.88;4970337;28;20037;-84
2022/09/01 10:48:22;;;;;;;1.67;1.42;;;;;;;26.39;57.96;101003.66;4954492;28;20027;-82
2022/09/01 10:50:48;;;;;;;1.55;1.45;;;;;;;26.47;56.70;100995.69;4987186;28;20403;-82
2022/09/01 10:53:32;;;;;;;1.65;1.25;;;;;;;26.66;56.81;100991.81;4970569;28;20117;-85
2022/09/01 10:56:18;;;;;;;1.13;1.02;;;;;;;26.78;56.80;100993.09;4972343;28;20628;-79
2022/09/01 10:58:44;;;;;;;1.98;1.65;;;;;;;26.85;56.75;101003.84;4955898;28;20038;-90
2022/09/01 11:01:09;;;;;;;1.77;1.63;;;;;;;26.78;56.97;100995.75;4984344;28;20031;-81
2022/09/01 11:03:45;;;;;;;1.65;1.30;;;;;;;26.77;57.21;100995.91;4954494;28;20037;-81
2022/09/01 11:06:10;;;;;;;1.27;0.90;;;;;;;26.78;56.34;100984.31;4971010;28;20051;-82
2022/09/01 11:09:00;;;;;;;1.88;1.40;;;;;;;26.92;55.27;100991.53;4954559;28;20516;-89
2022/09/01 11:11:44;;;;;;;1.10;1.00;;;;;;;26.84;55.99;100970.31;4957917;28;20054;-80
2022/09/01 11:14:22;;;;;;;1.70;1.38;;;;;;;26.98;55.31;100982.88;4971665;28;20023;-81
2022/09/01 11:17:10;;;;;;;1.70;1.23;;;;;;;27.04;55.67;100987.53;4953839;28;20161;-88
2022/09/01 11:19:40;;;;;;;2.20;1.73;;;;;;;26.99;55.57;100983.72;4954367;28;20055;-94
2022/09/01 11:22:12;;;;;;;2.15;1.95;;;;;;;26.93;55.96;100982.56;4969845;28;20088;-83
2022/09/01 11:24:37;;;;;;;1.73;1.17;;;;;;;26.91;56.58;100979.25;4970843;28;20559;-89
2022/09/01 11:27:04;;;;;;;1.45;1.27;;;;;;;26.73;56.06;100954.78;4972530;28;20035;-90
2022/09/01 11:29:57;;;;;;;1.52;1.40;;;;;;;26.93;56.76;100976.44;4970602;28;20404;-81
2022/09/01 11:32:34;;;;;;;1.70;1.60;;;;;;;26.94;55.47;100960.34;4971163;28;20043;-79
2022/09/01 11:35:20;;;;;;;1.65;1.30;;;;;;;26.79;56.17;100967.38;4954548;28;20030;-85
2022/09/01 11:38:15;;;;;;;0.95;0.88;;;;;;;26.71;56.86;100964.75;4974230;28;20101;-82
2022/09/01 11:40:42;;;;;;;1.63;1.48;;;;;;;26.58;57.31;100944.91;4988902;28;20026;-90
2022/09/01 11:43:10;;;;;;;1.98;1.77;;;;;;;26.67;56.00;100940.38;4959413;28;20037;-79
2022/09/01 11:45:42;;;;;;;1.33;1.23;;;;;;;26.68;55.91;100946.53;4965888;28;20378;-83
2022/09/01 11:48:09;;;;;;;1.88;1.77;;;;;;;26.59;56.17;100945.72;4935306;28;20038;-82
2022/09/01 11:50:36;;;;;;;1.85;1.35;;;;;;;26.53;57.65;100926.00;4948507;28;20126;-83
2022/09/01 11:53:03;;;;;;;1.98;1.75;;;;;;;26.69;57.00;100942.88;4951067;28;20575;-82
2022/09/01 11:55:40;;;;;;;1.65;1.27;;;;;;;26.69;56.96;100950.81;4952413;28;20075;-90
2022/09/01 11:58:09;;;;;;;2.50;1.52;;;;;;;26.69;56.83;100942.88;4953993;28;20035;-82
2022/09/01 12:00:37;;;;;;;1.35;1.13;;;;;;;26.76;55.00;100931.41;4970294;28;20550;-81
2022/09/01 12:03:18;;;;;;;1.75;1.13;;;;;;;26.78;56.57;100926.72;4954665;28;20050;-82
2022/09/01 12:05:43;;;;;;;1.48;1.38;;;;;;;26.89;55.56;100922.88;4955383;28;20035;-91
2022/09/01 12:08:14;;;;;;;2.00;1.80;;;;;;;27.01;53.99;100920.63;4954361;28;20472;-83
2022/09/01 12:10:39;;;;;;;1.00;0.90;;;;;;;26.84;55.76;100923.41;4954126;28;20059;-86
2022/09/01 12:13:07;;;;;;;1.65;1.10;;;;;;;26.82;55.98;100921.91;4953793;28;20121;-85
2022/09/01 12:15:35;;;;;;;0.63;0.57;;;;;;;26.84;56.53;100919.88;4954499;28;20031;-86
2022/09/01 12:18:17;;;;;;;1.50;1.40;;;;;;;26.83;56.69;100916.41;4957586;28;20015;-84
2022/09/01 12:20:43;;;;;;;2.33;1.73;;;;;;;26.90;56.33;100905.94;4973546;28;20531;-84
2022/09/01 12:23:29;;;;;;;1.45;1.10;;;;;;;27.11;54.57;100911.47;4970635;28;20042;-82
2022/09/01 12:25:57;;;;;;;1.45;1.25;;;;;;;27.08;54.65;100903.88;4969930;28;20030;-83
2022/09/01 12:28:23;;;;;;;2.40;1.70;;;;;;;27.26;54.66;100913.38;4944233;28;20150;-84
2022/09/01 12:30:50;;;;;;;1.52;1.38;;;;;;;27.21;53.45;100905.94;4965621;28;20030;-85
2022/09/01 12:33:17;;;;;;;2.03;1.55;;;;;;;27.32;54.46;100908.16;4975785;28;20038;-86
2022/09/01 12:35:44;;;;;;;1.83;1.42;;;;;;;27.42;54.62;100899.97;4976400;28;20507;-84
2022/09/01 12:38:21;;;;;;;1.83;1.60;;;;;;;27.54;53.94;100895.91;4988937;28;20031;-89
2022/09/01 12:40:49;;;;;;;2.08;1.80;;;;;;;27.49;54.37;100898.25;4957407;28;20031;-88
2022/09/01 12:43:37;;;;;;;2.13;1.52;;;;;;;27.56;52.81;100906.34;4957912;28;20093;-83
2022/09/01 12:46:09;;;;;;;1.52;1.42;;;;;;;27.66;51.89;100913.09;4973915;28;20089;-87
2022/09/01 12:48:36;;;;;;;1.48;1.35;;;;;;;27.49;52.14;100874.34;4957350;28;20500;-82
2022/09/01 12:51:05;;;;;;;2.83;1.73;;;;;;;27.74;51.44;100892.78;4974872;28;20110;-84
2022/09/01 12:53:34;;;;;;;1.20;1.08;;;;;;;27.85;52.50;100895.81;4973595;28;20031;-88
2022/09/01 12:56:37;;;;;;;1.55;1.15;;;;;;;27.87;51.02;100904.44;4957728;28;20492;-86
2022/09/01 12:59:13;;;;;;;2.03;1.40;;;;;;;27.74;50.71;100888.28;4917985;29;20513;-85
2022/09/01 13:01:40;;;;;;;1.80;1.67;;;;;;;27.72;50.95;100896.41;4952269;28;20035;-85
2022/09/01 13:04:15;;;;;;;1.30;1.08;;;;;;;27.77;51.21;100903.03;4973107;28;20043;-85
2022/09/01 13:06:40;;;;;;;2.95;1.10;;;;;;;27.77;49.82;100893.22;4973262;28;20480;-85
2022/09/01 13:09:06;;;;;;;1.45;1.20;;;;;;;27.50;50.35;100883.13;4973956;28;20136;-89
2022/09/01 13:11:32;;;;;;;1.00;0.90;;;;;;;27.56;50.42;100896.53;4972789;28;20038;-84
2022/09/01 13:13:57;;;;;;;1.42;1.20;;;;;;;27.56;50.69;100885.91;4973240;28;20023;-85
2022/09/01 13:16:23;;;;;;;1.70;1.33;;;;;;;27.60;51.24;100897.81;4973126;28;20105;-85
2022/09/01 13:18:48;;;;;;;1.40;1.10;;;;;;;27.56;51.28;100890.41;4956426;28;20031;-85
2022/09/01 13:21:14;;;;;;;1.67;1.35;;;;;;;27.53;51.41;100886.28;4972799;28;20035;-86
2022/09/01 13:23:40;;;;;;;1.85;1.10;;;;;;;27.66;50.93;100891.84;4956428;28;20114;-84
2022/09/01 13:26:05;;;;;;;1.50;1.40;;;;;;;27.66;50.70;100896.31;4956902;28;20040;-84
2022/09/01 13:28:31;;;;;;;1.25;1.00;;;;;;;27.57;50.40;100871.63;4956715;28;20031;-84
2022/09/01 13:30:58;;;;;;;1.65;1.30;;;;;;;27.55;51.44;100863.00;4972840;28;20026;-85
2022/09/01 13:33:24;;;;;;;1.88;1.60;;;;;;;27.74;50.99;100887.47;4956788;28;20488;-85
2022/09/01 13:35:50;;;;;;;1.40;1.30;;;;;;;27.65;51.70;100884.88;4956675;28;20062;-83
2022/09/01 13:38:16;;;;;;;1.63;1.27;;;;;;;27.48;52.18;100877.19;4952292;28;20041;-82
2022/09/01 13:40:44;;;;;;;1.80;1.52;;;;;;;27.60;52.66;100887.19;4985850;28;20410;-82
2022/09/01 13:43:10;;;;;;;2.13;1.58;;;;;;;27.63;52.29;100881.53;4975798;28;20041;-83
2022/09/01 13:45:36;;;;;;;1.65;1.50;;;;;;;27.60;52.46;100889.84;4993228;28;20069;-81
2022/09/01 13:48:02;;;;;;;2.15;1.88;;;;;;;27.40;52.07;100870.91;4972180;28;20133;-88
2022/09/01 13:50:28;;;;;;;2.08;1.42;;;;;;;27.44;52.24;100864.25;4965001;28;20506;-89
2022/09/01 13:52:55;;;;;;;1.77;1.55;;;;;;;27.47;52.61;100868.38;4956865;28;20058;-88
